Time;durP1;ratioP1;P1;durP2;ratioP2;P2;SDS_P1;SDS_P2;PMS_P1;PMS_P2;Temp;Humidity;BMP_temperature;BMP_pressure;BME280_temperature;BME280_humidity;BME280_pressure;Samples;Min_cycle;Max_cycle;Signal;HPM_P1;HPM_P2
2022/06/01 00:02:03;;;;;;;295.42;281.85;;;14.30;99.90;;;13.86;83.24;99771.72;5026187;28;20199;-77
2022/06/01 00:04:31;;;;;;;289.08;275.70;;;14.20;99.90;;;13.68;84.66;99780.84;5063675;23;20607;-72
2022/06/01 00:06:58;;;;;;;262.75;251.02;;;14.20;99.90;;;13.76;84.64;99797.56;5005480;28;20239;-73
2022/06/01 00:09:27;;;;;;;271.48;259.60;;;14.10;99.90;;;13.40;87.49;99819.28;5003515;28;20208;-72
2022/06/01 00:11:54;;;;;;;283.83;272.95;;;14.00;99.90;;;13.16;88.14;99820.44;5003476;28;20579;-72
2022/06/01 00:14:22;;;;;;;290.10;278.80;;;13.90;99.90;;;13.07;88.69;99821.41;5002235;28;20572;-73
2022/06/01 00:16:55;;;;;;;293.35;281.48;;;13.80;99.90;;;12.68;89.79;99816.47;4991862;28;20562;-72
2022/06/01 00:19:23;;;;;;;282.17;271.23;;;13.60;99.90;;;12.57;91.90;99827.19;4986797;28;20212;-72
2022/06/01 00:24:39;;;;;;;271.90;261.45;;;13.40;99.90;;;12.73;91.07;99867.72;4990537;28;20235;-71
2022/06/01 00:27:08;;;;;;;274.30;263.10;;;13.30;99.90;;;12.93;89.50;99889.66;4988512;28;20220;-71
2022/06/01 00:29:39;;;;;;;249.75;239.45;;;13.30;99.90;;;12.57;90.19;99864.31;4997173;28;20267;-70
2022/06/01 00:32:11;;;;;;;232.68;224.05;;;13.30;99.90;;;12.80;90.17;99893.31;5003884;28;20212;-71
2022/06/01 00:34:41;;;;;;;249.02;238.20;;;13.20;99.90;;;12.73;91.30;99899.56;4990814;28;20236;-74
2022/06/01 00:37:09;;;;;;;263.50;252.25;;;13.10;99.90;;;12.69;90.46;99892.50;4975106;28;20208;-74
2022/06/01 00:39:38;;;;;;;221.80;213.10;;;13.10;99.90;;;12.55;91.06;99900.56;4989855;28;20208;-74
2022/06/01 00:42:17;;;;;;;210.13;201.65;;;13.10;99.90;;;12.56;91.82;99917.38;4990855;28;20204;-73
2022/06/01 00:44:47;;;;;;;213.52;204.23;;;13.00;99.90;;;12.54;91.83;99925.34;4984950;28;20229;-73
2022/06/01 00:47:16;;;;;;;228.65;219.77;;;13.00;99.90;;;12.56;90.67;99917.38;4991650;28;20217;-72
2022/06/01 00:49:53;;;;;;;230.10;221.20;;;13.00;99.90;;;12.58;89.81;99912.94;4986903;28;20216;-71
2022/06/01 00:52:35;;;;;;;221.45;211.70;;;12.90;99.90;;;12.20;90.31;99900.81;4987528;28;20204;-71
2022/06/01 00:55:11;;;;;;;229.75;219.05;;;12.80;99.90;;;12.31;90.62;99901.63;4991596;28;20235;-71
2022/06/01 00:57:41;;;;;;;201.50;193.30;;;12.70;99.90;;;12.43;88.49;99911.28;4990527;28;20661;-70
2022/06/01 01:00:16;;;;;;;174.90;167.65;;;12.70;99.90;;;12.42;89.85;99921.00;4990771;28;20224;-71
2022/06/01 01:02:44;;;;;;;186.98;178.30;;;12.70;99.90;;;12.49;90.04;99937.75;4988434;28;20204;-72
2022/06/01 01:05:16;;;;;;;179.45;171.82;;;12.70;99.90;;;12.59;89.09;99946.53;4982496;28;20231;-71
2022/06/01 01:07:45;;;;;;;173.60;165.48;;;12.70;99.90;;;12.06;92.44;99948.59;4989553;28;20220;-70
2022/06/01 01:10:15;;;;;;;163.23;156.48;;;12.70;99.90;;;12.01;92.87;99955.69;4990379;28;20213;-71
2022/06/01 01:15:55;;;;;;;147.70;141.25;;;12.50;99.90;;;12.25;91.42;99965.31;4935616;28;20210;-71
2022/06/01 01:18:35;;;;;;;132.88;126.85;;;12.40;99.90;;;12.16;92.20;99970.66;4984426;28;20220;-71
2022/06/01 01:21:33;;;;;;;141.60;134.60;;;12.40;99.90;;;11.99;92.35;99969.84;4988047;28;20223;-71
2022/06/01 01:24:55;;;;;;;168.68;160.52;;;12.40;99.90;;;11.98;92.73;99970.72;5003236;28;20232;-70
2022/06/01 01:27:23;;;;;;;159.93;152.88;;;12.40;99.90;;;12.02;92.63;99988.38;4965460;28;20236;-71
2022/06/01 01:29:51;;;;;;;169.52;161.98;;;12.30;99.90;;;11.70;94.05;99984.03;4989859;28;20208;-71
2022/06/01 01:32:19;;;;;;;172.20;165.15;;;12.30;99.90;;;11.71;95.28;99996.41;4991352;28;20622;-71
2022/06/01 01:34:47;;;;;;;159.40;152.32;;;12.20;99.90;;;11.72;95.31;100005.22;4989176;28;20224;-70
2022/06/01 01:37:25;;;;;;;169.00;162.30;;;12.10;99.90;;;11.88;94.58;100029.94;4990113;28;20232;-71
2022/06/01 01:39:55;;;;;;;171.68;163.38;;;12.10;99.90;;;11.43;96.80;100014.06;4983821;28;20231;-72
2022/06/01 01:42:24;;;;;;;185.10;177.02;;;12.10;99.90;;;11.19;100.00;100032.63;4988827;28;20211;-71
2022/06/01 01:45:14;;;;;;;196.23;186.75;;;11.90;99.90;;;11.06;100.00;100044.97;4984171;28;20236;-71
2022/06/01 01:47:42;;;;;;;191.00;182.77;;;11.70;99.90;;;11.13;100.00;100045.84;4986585;28;20215;-71
2022/06/01 01:50:11;;;;;;;222.18;209.82;;;11.60;99.90;;;10.97;100.00;100038.78;4988746;28;20768;-71
2022/06/01 01:52:39;;;;;;;186.35;177.88;;;11.60;99.90;;;10.95;100.00;100049.38;4984770;28;20216;-71
2022/06/01 01:56:08;;;;;;;197.65;187.02;;;11.50;99.90;;;11.26;100.00;100089.09;4987269;28;20228;-71
2022/06/01 01:59:02;;;;;;;198.20;189.35;;;11.50;99.90;;;11.39;99.83;100107.63;4956028;28;20209;-71
2022/06/01 02:02:04;;;;;;;187.50;179.10;;;11.60;99.90;;;11.34;99.27;100098.78;4983860;28;20215;-71
2022/06/01 02:08:09;;;;;;;213.48;203.73;;;11.50;99.90;;;11.07;100.00;100097.00;4985022;28;20230;-70
2022/06/01 02:13:25;;;;;;;197.13;188.43;;;11.40;99.90;;;11.15;100.00;100112.91;4982808;28;20232;-70
2022/06/01 02:15:55;;;;;;;191.25;182.63;;;11.40;99.90;;;10.99;100.00;100105.81;4980753;28;20212;-70
2022/06/01 02:18:38;;;;;;;186.85;178.48;;;11.30;99.90;;;10.90;100.00;100104.03;4987882;28;20212;-70
2022/06/01 02:21:13;;;;;;;187.75;179.13;;;11.30;99.90;;;11.06;100.00;100128.75;4983107;28;20213;-70
2022/06/01 02:23:41;;;;;;;196.98;187.88;;;11.20;99.90;;;11.02;100.00;100132.28;4986915;28;20257;-72
2022/06/01 02:26:09;;;;;;;193.55;184.93;;;11.30;99.90;;;11.02;100.00;100140.22;4968305;28;20220;-72
2022/06/01 02:28:41;;;;;;;212.20;202.65;;;11.20;99.90;;;11.10;100.00;100157.88;4983420;28;20638;-72
2022/06/01 02:31:11;;;;;;;195.50;186.85;;;11.30;99.90;;;11.26;100.00;100156.16;4984467;28;20224;-72
2022/06/01 02:33:41;;;;;;;211.88;201.73;;;11.30;99.90;;;11.31;100.00;100161.44;4983893;28;20239;-73
2022/06/01 02:36:10;;;;;;;216.15;206.25;;;11.30;99.90;;;11.33;100.00;100175.56;4984591;28;20211;-74
2022/06/01 02:38:50;;;;;;;201.10;190.88;;;11.40;99.90;;;11.29;99.34;100158.78;4983536;28;20204;-72
2022/06/01 02:44:04;;;;;;;171.73;163.48;;;11.30;99.90;;;11.38;99.12;100171.16;4988634;28;20240;-72
2022/06/01 02:46:32;;;;;;;163.43;155.45;;;11.30;99.90;;;11.35;98.45;100172.03;4986428;28;20225;-72
2022/06/01 02:49:01;;;;;;;159.52;152.50;;;11.40;99.90;;;11.39;99.16;100180.88;4982110;28;20209;-72
2022/06/01 02:51:29;;;;;;;162.50;154.55;;;11.40;99.90;;;11.42;98.35;100175.59;4991599;28;20209;-71
2022/06/01 02:53:57;;;;;;;153.32;146.20;;;11.40;99.90;;;11.45;97.63;100178.22;4989829;28;20687;-71
2022/06/01 02:56:26;;;;;;;134.13;127.68;;;11.40;99.90;;;11.46;97.41;100174.72;4985511;28;20228;-71
2022/06/01 02:58:54;;;;;;;130.73;124.60;;;11.40;99.90;;;11.33;98.48;100173.81;4988398;28;20212;-71
2022/06/01 03:01:23;;;;;;;136.13;130.05;;;11.40;99.90;;;11.36;97.02;100173.81;4996648;28;20197;-70
2022/06/01 03:03:51;;;;;;;171.32;163.90;;;11.40;99.90;;;11.37;96.01;100156.16;4988094;28;20248;-71
2022/06/01 03:06:19;;;;;;;172.45;165.18;;;11.40;99.90;;;11.28;95.89;100146.44;4990272;28;20229;-71
2022/06/01 03:08:47;;;;;;;188.80;180.90;;;11.40;99.90;;;11.17;96.58;100143.78;4992957;28;20582;-71
2022/06/01 03:11:15;;;;;;;194.70;187.15;;;11.30;99.90;;;11.17;96.70;100142.91;4994600;28;20213;-71
2022/06/01 03:13:43;;;;;;;178.75;171.50;;;11.30;99.90;;;11.15;96.28;100150.84;4992681;28;20251;-71
2022/06/01 03:16:11;;;;;;;181.43;173.57;;;11.30;99.90;;;11.21;95.47;100148.19;4991690;28;20204;-71
2022/06/01 03:18:39;;;;;;;200.57;191.93;;;11.30;99.90;;;11.16;95.67;100146.41;5008353;28;20201;-73
2022/06/01 03:21:06;;;;;;;190.07;182.60;;;11.30;99.90;;;11.01;96.64;100136.69;4990369;28;20209;-73
2022/06/01 03:23:34;;;;;;;175.48;168.32;;;11.30;99.90;;;10.98;96.46;100131.38;4992719;28;20712;-73
2022/06/01 03:26:02;;;;;;;151.45;145.32;;;11.20;99.90;;;10.97;97.90;100149.91;5009151;28;20212;-74
2022/06/01 03:28:30;;;;;;;159.90;153.15;;;11.10;99.90;;;10.83;98.66;100155.16;4984942;28;20244;-73
2022/06/01 03:30:58;;;;;;;178.35;170.80;;;11.20;99.90;;;10.72;99.12;100151.59;4995433;28;20216;-71
2022/06/01 03:33:26;;;;;;;159.93;153.07;;;11.10;99.90;;;10.67;99.94;100153.31;4993739;28;20220;-70
2022/06/01 03:35:54;;;;;;;196.32;188.48;;;11.10;99.90;;;10.58;100.00;100160.34;4986327;28;20204;-71
2022/06/01 03:38:22;;;;;;;208.20;199.82;;;11.00;99.90;;;10.68;99.04;100179.78;4984531;28;20213;-70
2022/06/01 03:40:50;;;;;;;201.32;193.30;;;10.90;99.90;;;10.77;98.07;100184.22;4992469;28;20218;-71
2022/06/01 03:43:19;;;;;;;193.18;185.43;;;10.90;99.90;;;10.73;98.27;100193.03;4993929;28;20228;-71
2022/06/01 03:45:55;;;;;;;203.77;195.85;;;10.90;99.90;;;10.89;97.22;100205.44;4993913;28;20208;-71
2022/06/01 03:48:29;;;;;;;221.48;211.15;;;10.90;99.90;;;10.87;97.25;100204.53;4982696;28;20245;-70
2022/06/01 03:50:58;;;;;;;214.13;205.23;;;10.80;99.90;;;10.68;99.84;100208.88;4990547;28;20213;-70
2022/06/01 03:53:29;;;;;;;232.18;222.15;;;10.80;99.90;;;10.54;100.00;100226.44;4988696;28;20241;-71
2022/06/01 03:55:57;;;;;;;223.15;214.00;;;10.80;99.90;;;10.55;100.00;100238.78;4987790;28;20688;-71
2022/06/01 03:58:26;;;;;;;228.25;218.80;;;10.80;99.90;;;10.46;100.00;100247.53;4991107;28;20208;-71
2022/06/01 04:00:54;;;;;;;247.40;236.98;;;10.80;99.90;;;10.58;100.00;100255.53;4991471;28;20204;-71
2022/06/01 04:03:22;;;;;;;240.93;230.80;;;10.80;99.90;;;10.70;100.00;100278.53;5006884;28;20220;-71
2022/06/01 04:05:50;;;;;;;232.98;222.45;;;10.80;99.90;;;10.55;100.00;100276.66;4988307;28;20223;-70
2022/06/01 04:08:20;;;;;;;222.98;212.55;;;10.80;99.90;;;10.39;100.00;100301.19;4991846;28;20225;-70
2022/06/01 04:10:49;;;;;;;223.32;213.27;;;10.80;99.90;;;10.32;100.00;100309.97;4987754;28;20201;-71
2022/06/01 04:13:17;;;;;;;225.77;216.50;;;10.70;99.90;;;10.33;100.00;100332.00;4991835;28;20243;-71
2022/06/01 04:15:45;;;;;;;245.27;234.88;;;10.70;99.90;;;10.39;100.00;100354.06;4990570;28;20650;-74
2022/06/01 04:18:13;;;;;;;249.23;238.48;;;10.60;99.90;;;10.36;100.00;100364.63;4992718;28;20219;-73
2022/06/01 04:20:42;;;;;;;236.93;226.68;;;10.60;99.90;;;10.49;100.00;100377.09;4991246;28;20208;-73
2022/06/01 04:23:11;;;;;;;230.70;221.18;;;10.70;99.90;;;10.64;100.00;100383.38;4980895;28;20244;-73
2022/06/01 04:25:39;;;;;;;226.95;217.50;;;10.70;99.90;;;10.76;100.00;100394.06;5005899;28;20201;-73
2022/06/01 04:28:07;;;;;;;235.80;225.95;;;10.70;99.90;;;10.81;100.00;100390.56;4992803;28;20236;-73
2022/06/01 04:30:35;;;;;;;223.25;213.95;;;10.80;99.90;;;11.00;100.00;100388.06;4987236;28;20220;-74
2022/06/01 04:33:04;;;;;;;236.02;226.13;;;10.80;99.90;;;11.09;100.00;100383.69;4987437;28;20224;-74
2022/06/01 04:35:32;;;;;;;234.93;224.95;;;10.90;99.90;;;11.26;100.00;100389.09;4975624;28;20205;-74
2022/06/01 04:38:15;;;;;;;225.95;216.95;;;11.00;99.90;;;11.42;100.00;100380.34;4987193;28;20209;-73
2022/06/01 04:40:49;;;;;;;220.73;211.52;;;11.10;99.90;;;11.48;99.95;100369.78;4983308;28;20662;-73
2022/06/01 04:43:22;;;;;;;228.20;219.13;;;11.20;99.90;;;11.63;99.21;100370.72;4964390;28;20228;-73
2022/06/01 04:45:55;;;;;;;239.65;230.07;;;11.30;99.90;;;11.71;98.61;100377.84;4992797;28;20217;-73
2022/06/01 04:48:24;;;;;;;218.18;208.90;;;11.40;99.90;;;11.81;99.50;100381.44;4979220;28;20249;-73
2022/06/01 04:50:54;;;;;;;225.68;216.63;;;11.40;99.90;;;11.87;98.71;100385.88;4983282;28;20562;-73
2022/06/01 04:53:23;;;;;;;239.95;229.70;;;11.60;99.90;;;11.95;99.80;100398.28;5004841;28;20220;-74
2022/06/01 04:55:51;;;;;;;234.65;224.38;;;11.60;99.90;;;12.15;100.00;100427.47;4987285;28;20198;-74
2022/06/01 04:58:19;;;;;;;252.05;240.68;;;11.80;99.90;;;12.14;100.00;100423.94;4985030;28;20213;-75
2022/06/01 05:01:06;;;;;;;240.82;231.18;;;11.80;99.90;;;12.27;100.00;100448.72;4985742;28;20201;-76
2022/06/01 05:03:35;;;;;;;235.73;226.07;;;12.00;99.90;;;12.32;100.00;100436.34;4990436;28;20240;-74
2022/06/01 05:06:03;;;;;;;232.00;222.68;;;12.00;99.90;;;12.33;99.25;100424.88;4983733;28;20208;-74
2022/06/01 05:08:31;;;;;;;234.48;225.05;;;12.10;99.90;;;12.50;100.00;100436.38;4987281;28;20232;-74
2022/06/01 05:10:59;;;;;;;241.95;231.07;;;12.10;99.90;;;12.60;97.95;100423.13;4985961;28;20211;-76
2022/06/01 05:13:26;;;;;;;234.88;224.63;;;12.30;99.90;;;12.70;97.64;100433.75;4986137;28;20235;-75
2022/06/01 05:15:57;;;;;;;227.88;217.68;;;12.30;99.90;;;12.88;96.38;100419.59;4987730;28;20205;-75
2022/06/01 05:18:26;;;;;;;231.48;221.82;;;12.40;99.90;;;13.07;95.33;100413.41;4998997;28;20220;-77
2022/06/01 05:20:54;;;;;;;251.20;240.25;;;12.60;99.90;;;13.23;93.69;100395.72;5007784;28;20205;-75
2022/06/01 05:23:24;;;;;;;250.70;239.63;;;12.70;99.90;;;13.36;92.11;100378.84;4997022;28;20243;-76
2022/06/01 05:25:54;;;;;;;204.13;195.02;;;12.80;99.90;;;13.33;91.47;100365.56;4988259;28;20661;-76
2022/06/01 05:28:30;;;;;;;197.88;189.90;;;12.90;99.90;;;13.59;91.46;100378.75;4973877;28;20622;-74
2022/06/01 05:31:18;;;;;;;187.95;179.77;;;13.00;99.90;;;13.71;90.48;100364.53;4991510;28;20209;-74
2022/06/01 05:33:48;;;;;;;179.85;172.85;;;13.10;99.90;;;13.76;91.18;100374.25;4982098;28;20232;-76
2022/06/01 05:36:17;;;;;;;184.43;177.27;;;13.20;99.90;;;13.68;90.13;100359.22;4983844;28;20220;-74
2022/06/01 05:38:46;;;;;;;221.18;212.32;;;13.30;99.90;;;13.76;90.75;100365.41;4973978;28;20220;-75
2022/06/01 05:41:15;;;;;;;208.05;199.95;;;13.40;99.90;;;14.20;91.31;100410.34;4989009;28;20212;-73
2022/06/01 05:43:43;;;;;;;210.57;202.40;;;13.50;99.90;;;14.37;89.21;100386.31;4981814;28;20244;-75
2022/06/01 05:46:11;;;;;;;203.48;195.63;;;13.70;99.90;;;14.38;86.75;100350.84;4983205;28;20208;-74
2022/06/01 05:48:39;;;;;;;196.20;188.55;;;13.90;99.90;;;14.57;85.12;100325.88;4984031;28;20241;-75
2022/06/01 05:51:07;;;;;;;216.25;207.77;;;14.00;99.90;;;14.65;82.20;100272.56;4980242;28;20218;-75
2022/06/01 05:53:35;;;;;;;233.52;224.40;;;14.10;99.90;;;14.85;81.51;100256.41;4990573;28;20228;-75
2022/06/01 05:56:03;;;;;;;229.07;220.25;;;14.20;99.90;;;14.97;79.79;100237.63;4991420;28;20212;-76
2022/06/01 05:58:32;;;;;;;269.40;256.42;;;14.40;99.90;;;15.20;80.96;100256.84;4988351;28;20317;-75
2022/06/01 06:01:06;;;;;;;250.38;239.93;;;14.50;99.90;;;15.43;79.53;100253.00;4988302;28;20204;-76
2022/06/01 06:03:35;;;;;;;208.45;200.10;;;14.70;99.90;;;15.51;76.72;100209.34;4983527;28;20235;-76
2022/06/01 06:06:12;;;;;;;216.77;208.48;;;14.90;99.90;;;15.51;75.07;100145.38;4981811;28;20212;-76
2022/06/01 06:08:56;;;;;;;228.13;218.90;;;15.00;99.90;;;15.73;75.84;100161.09;4986079;28;20232;-76
2022/06/01 06:11:28;;;;;;;247.55;238.25;;;15.20;99.90;;;15.68;75.36;100154.06;4982863;28;20216;-78
2022/06/01 06:14:00;;;;;;;238.73;229.23;;;15.30;99.90;;;15.62;75.43;100138.16;4993950;28;20235;-76
2022/06/01 06:16:34;;;;;;;225.98;217.20;;;15.30;99.90;;;15.55;75.42;100132.91;4997458;28;20215;-75
2022/06/01 06:19:04;;;;;;;237.63;227.48;;;15.40;99.90;;;15.82;77.38;100175.16;4985495;28;20219;-76
2022/06/01 06:21:32;;;;;;;217.00;208.38;;;15.50;99.90;;;16.13;78.02;100204.00;4992033;28;20693;-75
2022/06/01 06:24:06;;;;;;;249.05;239.50;;;15.70;99.90;;;16.29;76.41;100181.47;4990284;28;20252;-75
2022/06/01 06:26:36;;;;;;;237.73;228.20;;;15.90;99.90;;;16.30;75.46;100162.75;4994889;28;20581;-77
2022/06/01 06:29:08;;;;;;;231.27;222.32;;;16.00;99.90;;;16.45;76.66;100166.03;4993847;28;20224;-76
2022/06/01 06:31:38;;;;;;;215.57;207.13;;;16.20;99.90;;;16.27;76.92;100148.59;4987286;28;20212;-76
2022/06/01 06:34:15;;;;;;;257.92;247.18;;;16.30;99.90;;;16.23;76.47;100145.09;4994207;28;20232;-76
2022/06/01 06:36:45;;;;;;;263.95;253.00;;;16.30;99.90;;;16.48;75.20;100139.28;4989245;28;20209;-76
2022/06/01 06:39:14;;;;;;;271.02;260.38;;;16.40;99.90;;;16.57;74.35;100117.75;4988363;28;20201;-76
2022/06/01 06:41:42;;;;;;;241.93;232.30;;;16.50;99.90;;;16.61;73.81;100115.00;4988472;28;20211;-76
2022/06/01 06:44:10;;;;;;;227.52;218.20;;;16.60;99.90;;;16.75;73.44;100105.84;5010060;28;20603;-75
2022/06/01 06:46:38;;;;;;;261.15;250.30;;;16.60;99.90;;;17.08;71.42;100080.19;4994955;28;20216;-75
2022/06/01 06:49:07;;;;;;;293.02;281.33;;;16.90;99.90;;;17.37;72.00;100093.75;4995122;28;20244;-76
2022/06/01 06:51:37;;;;;;;291.98;279.83;;;17.10;99.90;;;17.23;70.83;100048.66;4994891;28;20692;-77
2022/06/01 06:54:06;;;;;;;266.70;255.70;;;17.20;99.90;;;17.48;69.74;100038.22;4995767;28;20232;-76
2022/06/01 06:56:34;;;;;;;278.92;267.40;;;17.40;99.90;;;17.74;68.78;100029.56;4994446;28;20211;-74
2022/06/01 06:59:03;;;;;;;260.02;249.38;;;17.50;99.90;;;17.32;70.20;99999.44;4979896;28;20209;-75
2022/06/01 07:01:31;;;;;;;241.65;231.55;;;17.50;99.90;;;17.31;70.45;99996.81;4987568;28;20205;-74
2022/06/01 07:04:00;;;;;;;265.75;254.63;;;17.60;99.90;;;17.86;70.31;100044.41;4993185;28;20247;-74
2022/06/01 07:06:29;;;;;;;270.52;258.52;;;17.70;99.90;;;18.02;69.90;100040.41;4989218;28;20201;-73
2022/06/01 07:08:57;;;;;;;263.30;252.70;;;17.90;99.90;;;18.29;69.71;100044.13;4991248;28;20247;-74
2022/06/01 07:11:29;;;;;;;264.48;253.38;;;18.20;99.90;;;17.97;69.01;99986.13;4994521;28;20216;-74
2022/06/01 07:13:59;;;;;;;263.52;252.30;;;18.40;99.90;;;18.08;68.97;99989.38;4993666;28;20224;-74
2022/06/01 07:16:30;;;;;;;278.85;266.45;;;18.60;99.90;;;17.59;70.71;99947.91;4987422;28;20201;-73
2022/06/01 07:19:02;;;;;;;270.40;258.48;;;18.20;99.90;;;17.48;70.47;99936.66;4985615;28;20221;-74
2022/06/01 07:21:31;;;;;;;277.25;265.63;;;17.90;99.90;;;18.01;70.77;99986.91;4995039;28;20212;-74
2022/06/01 07:24:00;;;;;;;264.67;253.48;;;17.90;99.90;;;18.39;68.72;99991.19;4989354;28;20236;-75
2022/06/01 07:26:41;;;;;;;290.80;278.40;;;18.20;99.90;;;18.51;68.28;99972.06;4988658;28;20208;-74
2022/06/01 07:29:09;;;;;;;276.48;264.20;;;18.50;99.90;;;18.74;67.36;99956.19;4983462;28;20228;-74
2022/06/01 07:31:37;;;;;;;267.73;256.35;;;18.80;99.90;;;18.68;66.58;99931.41;4993677;28;20567;-74
2022/06/01 07:34:05;;;;;;;269.13;257.25;;;19.00;99.90;;;19.02;67.22;99956.16;4993909;28;20244;-74
2022/06/01 07:36:37;;;;;;;272.73;260.75;;;19.20;99.90;;;19.23;66.11;99940.28;4991967;28;20213;-75
2022/06/01 07:44:52;;;;;;;264.85;253.35;;;19.30;99.90;;;19.47;63.34;99848.28;4995023;28;20220;-73
2022/06/01 07:47:20;;;;;;;265.55;253.73;;;19.70;99.90;;;19.39;63.80;99840.50;4994075;28;20212;-74
2022/06/01 07:50:09;;;;;;;266.05;254.57;;;19.90;99.90;;;19.45;64.03;99834.03;4994472;28;20236;-74
2022/06/01 07:52:57;;;;;;;296.88;283.52;;;20.20;99.90;;;20.56;63.05;99896.91;4984472;28;20228;-73
2022/06/01 07:55:26;;;;;;;253.07;241.48;;;20.70;99.90;;;20.16;62.28;99781.28;4983943;28;20213;-74
2022/06/01 07:57:54;;;;;;;233.20;222.55;;;21.10;99.90;;;19.91;63.55;99768.84;4991158;28;20645;-74
2022/06/01 08:00:23;;;;;;;215.73;205.75;;;21.20;99.90;;;19.99;63.27;99765.84;4991499;28;20208;-73
2022/06/01 08:02:51;;;;;;;232.35;221.43;;;20.60;99.90;;;19.40;63.37;99696.59;4991963;28;20209;-74
2022/06/01 08:05:20;;;;;;;222.35;212.05;;;20.50;99.90;;;19.77;64.19;99749.72;5001169;28;20231;-74
2022/06/01 08:07:49;;;;;;;231.50;220.27;;;20.30;99.90;;;20.10;62.64;99758.25;4993687;28;20211;-74
2022/06/01 08:10:20;;;;;;;208.10;198.38;;;20.80;99.90;;;20.16;63.21;99773.22;4993038;28;20239;-73
2022/06/01 08:13:07;;;;;;;238.80;227.70;;;21.00;99.90;;;20.49;61.98;99776.34;4993728;28;20212;-73
2022/06/01 08:15:49;;;;;;;245.73;234.35;;;21.20;99.90;;;20.96;61.62;99796.72;4993193;28;20216;-74
2022/06/01 08:18:22;;;;;;;263.17;250.75;;;21.70;99.90;;;21.08;62.31;99779.19;4983606;28;20233;-74
2022/06/01 08:20:51;;;;;;;301.92;287.45;;;22.30;99.90;;;21.96;60.17;99807.41;4987544;28;20204;-74
2022/06/01 08:23:25;;;;;;;340.30;323.50;;;22.80;99.90;;;22.39;59.57;99801.81;4990253;28;20228;-73
2022/06/01 08:25:53;;;;;;;326.90;310.98;;;23.20;99.90;;;22.11;60.63;99769.97;4992941;28;20212;-75
2022/06/01 08:28:22;;;;;;;319.50;303.65;;;23.40;99.90;;;21.36;60.10;99626.41;4978579;28;20211;-74
2022/06/01 08:30:52;;;;;;;332.23;315.80;;;23.50;99.90;;;22.34;59.64;99743.66;4992504;28;20239;-75
2022/06/01 08:33:20;;;;;;;380.63;360.67;;;23.60;99.90;;;23.21;58.76;99778.72;4992229;28;20250;-75
2022/06/01 08:35:51;;;;;;;412.77;391.23;;;24.10;99.90;;;21.73;58.61;99536.69;4991273;28;20212;-75
2022/06/01 08:38:20;;;;;;;414.17;392.90;;;24.10;99.90;;;21.20;59.51;99512.44;4993016;28;20235;-75
2022/06/01 08:41:00;;;;;;;390.88;370.58;;;23.40;99.90;;;21.11;60.40;99537.09;4996258;28;20215;-75
2022/06/01 08:43:34;;;;;;;393.02;372.70;;;23.00;99.90;;;21.48;59.19;99555.00;4996550;28;20250;-75
2022/06/01 08:46:03;;;;;;;387.95;367.85;;;23.00;99.90;;;20.93;59.48;99481.53;4978514;28;20222;-75
2022/06/01 08:48:41;;;;;;;394.25;373.70;;;22.40;99.90;;;21.12;60.07;99517.31;4992665;28;20215;-75
2022/06/01 08:51:11;;;;;;;368.45;349.58;;;22.50;99.90;;;21.56;60.83;99594.97;4984531;28;20227;-75
2022/06/01 08:53:40;;;;;;;376.92;357.15;;;22.80;99.90;;;22.03;59.34;99627.63;4988694;28;20224;-75
2022/06/01 08:56:16;;;;;;;378.20;358.55;;;23.10;99.90;;;21.73;59.11;99555.53;4988565;28;20215;-75
2022/06/01 08:59:11;;;;;;;413.38;391.95;;;23.20;99.90;;;22.43;59.14;99642.63;4985175;28;20210;-75
2022/06/01 09:02:06;;;;;;;479.80;453.67;;;23.10;99.90;;;23.37;59.47;99723.00;4986811;28;20204;-75
2022/06/01 09:04:44;;;;;;;555.50;525.08;;;24.00;99.90;;;23.55;58.74;99703.16;4990953;28;20243;-75
2022/06/01 09:07:37;;;;;;;623.38;588.15;;;24.80;99.90;;;21.95;58.47;99477.22;4992117;28;20207;-76
2022/06/01 09:10:35;;;;;;;664.72;626.20;;;23.90;99.90;;;22.47;56.85;99506.81;4975424;28;20343;-75
2022/06/01 09:13:11;;;;;;;772.33;727.88;;;24.60;99.90;;;24.14;57.11;99717.75;4987542;28;20675;-75
2022/06/01 09:15:50;;;;;;;710.40;668.92;;;24.80;99.90;;;25.06;57.43;99724.03;4987830;28;20214;-74
2022/06/01 09:18:24;;;;;;;1104.72;999.90;;;26.20;99.90;;;24.16;54.99;99515.94;4983788;28;20204;-75
2022/06/01 09:23:42;;;;;;;944.10;889.50;;;24.50;99.00;;;22.40;57.60;99376.09;4983640;28;20232;-75
2022/06/01 09:26:27;;;;;;;956.28;901.15;;;24.60;99.90;;;23.45;58.41;99537.28;4982846;28;20223;-75
2022/06/01 09:29:00;;;;;;;767.30;722.00;;;24.80;99.90;;;23.33;56.28;99418.38;4989685;28;20208;-75
2022/06/01 09:31:40;;;;;;;777.90;731.60;;;25.50;99.40;;;23.44;57.88;99491.50;4988417;28;20236;-75
2022/06/01 09:34:44;;;;;;;732.78;688.92;;;25.70;97.10;;;22.86;58.74;99414.81;4975538;28;20228;-75
2022/06/01 09:37:26;;;;;;;741.65;696.63;;;25.50;98.20;;;23.76;56.50;99490.50;4990521;28;20218;-75
2022/06/01 09:39:59;;;;;;;1011.17;952.53;;;26.60;99.90;;;24.87;57.93;99636.84;4997109;28;20207;-75
2022/06/01 09:42:42;;;;;;;1103.07;999.90;;;27.30;99.90;;;25.68;55.64;99605.47;4994418;28;20208;-75
2022/06/01 09:45:48;;;;;;;698.90;655.95;;;27.40;99.90;;;25.22;55.23;99503.91;4990868;28;20244;-76
2022/06/01 09:48:31;;;;;;;974.75;917.33;;;27.60;95.10;;;23.98;57.64;99386.56;4991719;28;20230;-75
2022/06/01 09:51:01;;;;;;;684.58;643.40;;;;;;;23.61;57.59;99368.13;4970244;28;20234;-76
2022/06/01 09:53:43;;;;;;;765.13;718.67;;;26.40;95.10;;;23.52;58.47;99408.25;4995401;28;20227;-76
2022/06/01 09:56:17;;;;;;;756.20;710.80;;;26.00;97.00;;;23.14;56.63;99308.91;4992096;28;20211;-75
2022/06/01 10:07:30;;;;;;;776.55;730.13;;;26.80;92.70;;;23.54;55.00;99253.41;4974708;28;20216;-76
2022/06/01 10:10:04;;;;;;;446.38;420.63;;;26.60;93.00;;;24.09;54.28;99312.00;4971167;28;20227;-74
2022/06/01 10:12:49;;;;;;;436.95;412.15;;;26.40;93.30;;;24.58;55.37;99384.53;5004602;28;20214;-76
2022/06/01 10:15:40;;;;;;;436.60;411.30;;;26.60;95.80;;;24.66;55.31;99392.13;4976858;28;20628;-75
2022/06/01 10:18:21;;;;;;;532.17;501.23;;;26.80;94.80;;;24.85;54.68;99388.13;4989902;28;20215;-75
2022/06/01 10:21:08;;;;;;;623.90;586.72;;;27.20;95.30;;;24.38;55.80;99328.19;4971115;28;20219;-75
2022/06/01 10:23:49;;;;;;;543.90;511.75;;;26.80;91.40;;;23.39;54.90;99143.72;4979690;28;20231;-76
2022/06/01 10:26:24;;;;;;;590.63;555.28;;;26.70;91.50;;;25.00;53.79;99342.16;4991473;28;20214;-75
2022/06/01 10:28:56;;;;;;;560.08;526.90;;;27.00;94.70;;;25.47;53.92;99391.19;4978109;28;20211;-75
2022/06/01 10:31:57;;;;;;;436.55;411.23;;;27.70;93.20;;;25.42;52.49;99325.66;4984409;28;20228;-75
2022/06/01 10:34:55;;;;;;;377.90;356.30;;;27.90;90.40;;;25.11;51.17;99221.41;4993344;28;20235;-76
2022/06/01 10:37:43;;;;;;;375.83;354.33;;;27.60;86.70;;;24.12;50.92;99066.03;4979273;28;20654;-75
2022/06/01 10:40:20;;;;;;;364.85;344.35;;;26.80;85.40;;;23.94;51.49;99051.06;5000776;28;20223;-75
2022/06/01 10:43:16;;;;;;;339.45;320.55;;;25.70;86.70;;;24.41;51.26;99114.53;4996287;28;20679;-75
2022/06/01 10:46:00;;;;;;;340.58;321.70;;;25.70;87.50;;;24.81;51.48;99173.00;4998938;28;20219;-75
2022/06/01 10:48:36;;;;;;;335.65;316.85;;;26.00;88.60;;;25.16;51.13;99196.75;5000369;28;20207;-75